createdAt,value
2018-08-25T00:00:08.025Z,0.00
2018-08-25T00:01:08.061Z,0.00
2018-08-25T00:02:08.009Z,0.00
2018-08-25T00:03:08.002Z,0.00
2018-08-25T00:04:07.995Z,0.00
2018-08-25T00:05:07.987Z,0.00
2018-08-25T00:06:07.981Z,0.00
2018-08-25T00:07:07.973Z,0.00
2018-08-25T00:08:07.970Z,0.00
2018-08-25T00:09:07.961Z,0.00
2018-08-25T00:10:07.953Z,0.00
2018-08-25T00:11:07.946Z,0.00
2018-08-25T00:12:07.941Z,0.00
2018-08-25T00:13:07.944Z,0.00
2018-08-25T00:14:07.925Z,0.00
2018-08-25T00:15:07.917Z,0.00
2018-08-25T00:16:07.911Z,0.00
2018-08-25T00:17:07.903Z,0.00
2018-08-25T00:18:07.897Z,0.00
2018-08-25T00:19:07.890Z,0.00
2018-08-25T00:20:07.884Z,0.00
2018-08-25T00:21:07.875Z,0.00
2018-08-25T00:22:07.869Z,0.00
2018-08-25T00:23:07.861Z,0.00
2018-08-25T00:24:07.854Z,0.00
2018-08-25T00:25:07.850Z,0.00
2018-08-25T00:26:07.842Z,0.00
2018-08-25T00:27:07.832Z,0.00
2018-08-25T00:28:07.825Z,0.00
2018-08-25T00:29:07.818Z,0.00
2018-08-25T00:30:07.811Z,0.00
2018-08-25T00:31:07.804Z,0.00
2018-08-25T00:32:07.797Z,0.00
2018-08-25T00:33:07.792Z,0.00
2018-08-25T00:34:07.783Z,0.00
2018-08-25T00:35:07.775Z,0.00
2018-08-25T00:36:07.768Z,0.00
2018-08-25T00:37:07.761Z,0.00
2018-08-25T00:38:07.758Z,0.00
2018-08-25T00:39:07.747Z,0.00
2018-08-25T00:40:07.740Z,0.00
2018-08-25T00:41:07.733Z,0.00
2018-08-25T00:42:07.729Z,0.00
2018-08-25T00:43:07.718Z,0.00
2018-08-25T00:44:07.711Z,0.00
2018-08-25T00:45:07.704Z,0.00
2018-08-25T00:46:07.698Z,0.00
2018-08-25T00:47:07.690Z,0.00
2018-08-25T00:48:07.683Z,0.00
2018-08-25T00:49:07.676Z,0.00
2018-08-25T00:50:07.669Z,0.00
2018-08-25T00:51:07.661Z,0.00
2018-08-25T00:52:07.654Z,0.00
2018-08-25T00:53:07.647Z,0.00
2018-08-25T00:54:07.640Z,0.00
2018-08-25T00:55:07.632Z,0.00
2018-08-25T00:56:07.626Z,0.00
2018-08-25T00:57:07.621Z,0.00
2018-08-25T00:58:07.612Z,0.00
2018-08-25T00:59:07.604Z,0.00
2018-08-25T01:00:07.599Z,0.00
2018-08-25T01:01:07.591Z,0.00
2018-08-25T01:02:07.584Z,0.00
2018-08-25T01:03:07.576Z,0.00
2018-08-25T01:04:07.570Z,0.00
2018-08-25T01:05:07.563Z,0.00
2018-08-25T01:06:07.558Z,0.00
2018-08-25T01:07:07.548Z,0.00
2018-08-25T01:08:07.547Z,0.00
2018-08-25T01:09:07.535Z,0.00
2018-08-25T01:10:07.528Z,0.00
2018-08-25T01:11:07.520Z,0.00
2018-08-25T01:12:07.513Z,0.00
2018-08-25T01:13:07.507Z,0.00
2018-08-25T01:14:07.500Z,0.00
2018-08-25T01:15:07.492Z,0.00
2018-08-25T01:16:07.486Z,0.00
2018-08-25T01:17:07.479Z,0.00
2018-08-25T01:18:07.473Z,0.00
2018-08-25T01:19:07.468Z,0.00
2018-08-25T01:20:07.458Z,0.00
2018-08-25T01:21:07.451Z,0.00
2018-08-25T01:22:07.444Z,0.00
2018-08-25T01:23:07.437Z,0.00
2018-08-25T01:24:07.430Z,0.00
2018-08-25T01:25:07.428Z,0.00
2018-08-25T01:26:07.417Z,0.00
2018-08-25T01:27:07.408Z,0.00
2018-08-25T01:28:07.402Z,0.00
2018-08-25T01:29:07.395Z,0.00
2018-08-25T01:30:07.388Z,0.00
2018-08-25T01:31:07.380Z,0.00
2018-08-25T01:32:07.373Z,0.00
2018-08-25T01:33:07.367Z,0.00
2018-08-25T01:34:07.359Z,0.00
2018-08-25T01:35:07.352Z,0.00
2018-08-25T01:36:07.345Z,0.00
2018-08-25T01:37:07.338Z,0.00
2018-08-25T01:38:07.331Z,0.00
2018-08-25T01:39:07.323Z,0.00
2018-08-25T01:40:07.316Z,0.00
2018-08-25T01:41:07.309Z,0.00
2018-08-25T01:42:07.302Z,0.00
2018-08-25T01:43:07.293Z,0.00
2018-08-25T01:44:07.287Z,0.00
2018-08-25T01:45:07.283Z,0.00
2018-08-25T01:46:07.272Z,0.00
2018-08-25T01:47:07.263Z,0.00
2018-08-25T01:48:07.256Z,0.00
2018-08-25T01:49:07.250Z,0.00
2018-08-25T01:50:07.242Z,0.00
2018-08-25T01:51:07.234Z,0.00
2018-08-25T01:52:07.226Z,0.00
2018-08-25T01:53:07.220Z,0.00
2018-08-25T01:54:07.211Z,0.00
2018-08-25T01:55:07.203Z,0.00
2018-08-25T01:56:07.196Z,0.00
2018-08-25T01:57:07.188Z,0.00
2018-08-25T01:58:07.181Z,0.00
2018-08-25T01:59:07.173Z,0.00
2018-08-25T02:00:07.165Z,0.00
2018-08-25T02:01:07.159Z,0.00
2018-08-25T02:02:07.154Z,0.00
2018-08-25T02:03:07.143Z,0.00
2018-08-25T02:04:07.136Z,0.00
2018-08-25T02:05:07.127Z,0.00
2018-08-25T02:06:07.139Z,0.00
2018-08-25T02:07:07.111Z,0.00
2018-08-25T02:08:07.103Z,0.00
2018-08-25T02:09:07.096Z,0.00
2018-08-25T02:10:07.094Z,0.00
2018-08-25T02:11:07.080Z,0.00
2018-08-25T02:12:07.072Z,0.00
2018-08-25T02:13:07.065Z,0.00
2018-08-25T02:14:07.058Z,0.00
2018-08-25T02:15:07.048Z,0.00
2018-08-25T02:16:07.046Z,0.00
2018-08-25T02:17:07.032Z,0.00
2018-08-25T02:18:07.025Z,0.00
2018-08-25T02:19:07.016Z,0.00
2018-08-25T02:20:07.011Z,0.00
2018-08-25T02:21:07.000Z,0.00
2018-08-25T02:23:06.983Z,0.00
2018-08-25T02:24:06.976Z,0.00
2018-08-25T02:25:06.968Z,0.00
2018-08-25T02:26:06.960Z,0.00
2018-08-25T02:27:06.951Z,0.00
2018-08-25T02:28:06.954Z,0.00
2018-08-25T02:29:06.935Z,0.00
2018-08-25T02:30:06.927Z,0.00
2018-08-25T02:31:06.918Z,0.00
2018-08-25T02:32:06.910Z,0.00
2018-08-25T02:33:06.909Z,0.00
2018-08-25T02:34:06.895Z,0.00
2018-08-25T02:35:06.885Z,0.00
2018-08-25T02:36:06.877Z,0.00
2018-08-25T02:37:06.869Z,0.00
2018-08-25T02:38:06.861Z,0.00
2018-08-25T02:39:06.851Z,0.00
2018-08-25T02:40:06.843Z,0.00
2018-08-25T02:41:06.836Z,0.00
2018-08-25T02:42:06.827Z,0.00
2018-08-25T02:43:06.819Z,0.00
2018-08-25T02:44:06.811Z,0.00
2018-08-25T02:45:06.804Z,0.00
2018-08-25T02:46:06.795Z,0.00
2018-08-25T02:47:06.788Z,0.00
2018-08-25T02:48:06.777Z,0.00
2018-08-25T02:49:06.769Z,0.00
2018-08-25T02:50:06.765Z,0.00
2018-08-25T02:51:06.752Z,0.00
2018-08-25T02:52:06.745Z,0.00
2018-08-25T02:53:06.737Z,0.00
2018-08-25T02:54:06.729Z,0.00
2018-08-25T02:55:06.720Z,0.00
2018-08-25T02:56:06.712Z,0.00
2018-08-25T02:57:06.704Z,0.00
2018-08-25T02:58:06.697Z,0.00
2018-08-25T02:59:06.688Z,0.00
2018-08-25T03:00:06.680Z,0.00
2018-08-25T03:01:06.672Z,0.00
2018-08-25T03:02:06.665Z,0.00
2018-08-25T03:03:06.654Z,0.00
2018-08-25T03:04:06.647Z,0.00
2018-08-25T03:05:06.638Z,0.00
2018-08-25T03:06:06.632Z,0.00
2018-08-25T03:07:06.630Z,0.00
2018-08-25T03:08:06.612Z,0.00
2018-08-25T03:09:06.604Z,0.00
2018-08-25T03:10:06.596Z,0.00
2018-08-25T03:11:06.587Z,0.00
2018-08-25T03:12:06.578Z,0.00
2018-08-25T03:13:06.569Z,0.00
2018-08-25T03:14:06.606Z,0.00
2018-08-25T03:15:06.552Z,0.00
2018-08-25T03:16:06.547Z,0.00
2018-08-25T03:17:06.538Z,0.00
2018-08-25T03:18:06.526Z,0.00
2018-08-25T03:19:06.516Z,0.00
2018-08-25T03:20:06.508Z,0.00
2018-08-25T03:21:06.499Z,0.00
2018-08-25T03:22:06.490Z,0.00
2018-08-25T03:23:06.480Z,0.00
2018-08-25T03:24:06.472Z,0.00
2018-08-25T03:25:06.463Z,0.00
2018-08-25T03:26:06.454Z,0.00
2018-08-25T03:27:06.449Z,0.00
2018-08-25T03:28:06.436Z,0.00
2018-08-25T03:29:06.425Z,0.00
2018-08-25T03:30:06.668Z,0.00
2018-08-25T03:31:06.408Z,0.00
2018-08-25T03:32:06.399Z,0.00
2018-08-25T03:33:06.390Z,0.00
2018-08-25T03:34:06.381Z,0.00
2018-08-25T03:35:06.372Z,0.00
2018-08-25T03:36:06.364Z,0.00
2018-08-25T03:37:06.353Z,0.00
2018-08-25T03:38:06.344Z,0.00
2018-08-25T03:39:06.334Z,0.00
2018-08-25T03:40:06.325Z,0.00
2018-08-25T03:41:06.316Z,0.00
2018-08-25T03:42:06.307Z,0.00
2018-08-25T03:43:06.297Z,0.00
2018-08-25T03:44:06.290Z,0.00
2018-08-25T03:45:06.279Z,0.00
2018-08-25T03:46:06.270Z,0.00
2018-08-25T03:47:06.264Z,0.00
2018-08-25T03:48:06.251Z,0.00
2018-08-25T03:49:06.242Z,0.00
2018-08-25T03:50:07.034Z,0.00
2018-08-25T03:51:06.226Z,0.00
2018-08-25T03:52:06.219Z,0.00
2018-08-25T03:53:06.205Z,0.00
2018-08-25T03:54:06.196Z,0.00
2018-08-25T03:55:06.188Z,0.00
2018-08-25T03:56:06.178Z,0.00
2018-08-25T03:57:06.169Z,0.00
2018-08-25T03:58:06.160Z,0.00
2018-08-25T03:59:06.149Z,0.00
2018-08-25T04:00:06.141Z,0.00
2018-08-25T04:01:06.132Z,0.00
2018-08-25T04:02:06.127Z,0.00
2018-08-25T04:03:06.113Z,0.00
2018-08-25T04:04:06.104Z,0.00
2018-08-25T04:05:06.096Z,0.00
2018-08-25T04:06:06.087Z,0.00
2018-08-25T04:07:06.077Z,0.00
2018-08-25T04:08:06.068Z,0.00
2018-08-25T04:09:06.062Z,0.00
2018-08-25T04:10:06.051Z,0.00
2018-08-25T04:11:06.041Z,0.00
2018-08-25T04:12:06.037Z,0.00
2018-08-25T04:13:06.024Z,0.00
2018-08-25T04:14:06.015Z,0.00
2018-08-25T04:15:06.006Z,0.00
2018-08-25T04:16:05.996Z,0.00
2018-08-25T04:17:05.988Z,0.00
2018-08-25T04:18:05.979Z,0.00
2018-08-25T04:19:05.970Z,0.00
2018-08-25T04:20:05.962Z,0.00
2018-08-25T04:21:05.952Z,0.00
2018-08-25T04:22:05.957Z,0.00
2018-08-25T04:23:05.933Z,0.00
2018-08-25T04:24:05.925Z,0.00
2018-08-25T04:25:05.916Z,0.00
2018-08-25T04:26:05.908Z,0.00
2018-08-25T04:27:05.897Z,0.00
2018-08-25T04:28:05.889Z,0.00
2018-08-25T04:29:05.882Z,0.00
2018-08-25T04:30:05.876Z,0.00
2018-08-25T04:31:05.861Z,0.00
2018-08-25T04:32:05.853Z,0.00
2018-08-25T04:33:05.844Z,5.63
2018-08-25T04:34:05.836Z,5.63
2018-08-25T04:35:05.846Z,5.63
2018-08-25T04:36:05.817Z,5.63
2018-08-25T04:37:05.812Z,5.63
2018-08-25T04:38:05.800Z,5.63
2018-08-25T04:39:05.792Z,11.25
2018-08-25T04:40:05.782Z,11.25
2018-08-25T04:41:05.838Z,11.25
2018-08-25T04:42:05.765Z,11.25
2018-08-25T04:43:05.756Z,11.25
2018-08-25T04:44:05.747Z,16.88
2018-08-25T04:45:05.738Z,16.88
2018-08-25T04:46:05.729Z,16.88
2018-08-25T04:47:05.719Z,16.88
2018-08-25T04:48:05.711Z,22.50
2018-08-25T04:49:05.702Z,22.50
2018-08-25T04:50:05.694Z,22.50
2018-08-25T04:51:05.685Z,22.50
2018-08-25T04:52:05.675Z,22.50
2018-08-25T04:53:05.667Z,16.88
2018-08-25T04:54:05.658Z,16.88
2018-08-25T04:55:05.648Z,16.88
2018-08-25T04:56:05.640Z,22.50
2018-08-25T04:57:05.632Z,28.13
2018-08-25T04:58:05.625Z,33.75
2018-08-25T04:59:05.613Z,33.75
2018-08-25T05:00:05.604Z,33.75
2018-08-25T05:01:05.596Z,39.38
2018-08-25T05:02:05.587Z,39.38
2018-08-25T05:03:05.577Z,45.00
2018-08-25T05:04:05.570Z,45.00
2018-08-25T05:05:05.579Z,45.00
2018-08-25T05:06:05.552Z,50.63
2018-08-25T05:07:05.542Z,50.63
2018-08-25T05:08:05.534Z,50.63
2018-08-25T05:09:05.525Z,56.25
2018-08-25T05:10:05.517Z,56.25
2018-08-25T05:11:05.507Z,61.88
2018-08-25T05:12:05.501Z,61.88
2018-08-25T05:13:05.490Z,61.88
2018-08-25T05:14:05.482Z,67.50
2018-08-25T05:15:05.472Z,67.50
2018-08-25T05:16:05.463Z,73.13
2018-08-25T05:17:05.454Z,73.13
2018-08-25T05:18:05.447Z,73.13
2018-08-25T05:19:05.436Z,78.75
2018-08-25T05:20:05.428Z,78.75
2018-08-25T05:21:05.419Z,84.38
2018-08-25T05:22:05.530Z,84.38
2018-08-25T05:23:05.401Z,84.38
2018-08-25T05:24:05.395Z,90.00
2018-08-25T05:25:05.389Z,90.00
2018-08-25T05:26:05.394Z,95.63
2018-08-25T05:27:05.365Z,95.63
2018-08-25T05:28:05.357Z,95.63
2018-08-25T05:29:05.349Z,95.63
2018-08-25T05:30:05.340Z,101.25
2018-08-25T05:31:05.330Z,101.25
2018-08-25T05:32:05.322Z,106.88
2018-08-25T05:33:05.316Z,106.88
2018-08-25T05:34:05.304Z,112.50
2018-08-25T05:35:05.294Z,118.13
2018-08-25T05:36:05.286Z,118.13
2018-08-25T05:37:05.278Z,118.13
2018-08-25T05:38:05.269Z,123.75
2018-08-25T05:39:05.260Z,135.00
2018-08-25T05:40:05.251Z,135.00
2018-08-25T05:41:05.242Z,146.25
2018-08-25T05:42:05.234Z,135.00
2018-08-25T05:43:05.225Z,135.00
2018-08-25T05:44:05.220Z,140.63
2018-08-25T05:45:05.307Z,140.63
2018-08-25T05:46:05.201Z,146.25
2018-08-25T05:47:05.189Z,151.88
2018-08-25T05:48:05.180Z,151.88
2018-08-25T05:49:05.173Z,157.50
2018-08-25T05:50:05.163Z,174.38
2018-08-25T05:51:05.171Z,185.63
2018-08-25T05:52:05.147Z,236.25
2018-08-25T05:53:05.136Z,191.25
2018-08-25T05:54:05.128Z,191.25
2018-08-25T05:55:05.118Z,185.63
2018-08-25T05:56:05.110Z,163.13
2018-08-25T05:57:05.105Z,202.50
2018-08-25T05:58:05.093Z,191.25
2018-08-25T05:59:05.084Z,191.25
2018-08-25T06:00:05.075Z,247.50
2018-08-25T06:01:05.066Z,225.00
2018-08-25T06:02:05.058Z,185.63
2018-08-25T06:03:05.048Z,213.75
2018-08-25T06:04:05.041Z,286.88
2018-08-25T06:05:05.032Z,191.25
2018-08-25T06:06:05.023Z,219.38
2018-08-25T06:07:05.014Z,225.00
2018-08-25T06:08:05.006Z,151.88
2018-08-25T06:09:04.997Z,146.25
2018-08-25T06:10:04.991Z,157.50
2018-08-25T06:11:04.980Z,146.25
2018-08-25T06:12:04.972Z,135.00
2018-08-25T06:13:04.963Z,118.13
2018-08-25T06:14:04.955Z,90.00
2018-08-25T06:15:04.946Z,146.25
2018-08-25T06:16:04.938Z,174.38
2018-08-25T06:17:04.930Z,129.38
2018-08-25T06:18:04.922Z,146.25
2018-08-25T06:19:04.959Z,247.50
2018-08-25T06:20:04.905Z,281.25
2018-08-25T06:21:04.897Z,303.75
2018-08-25T06:22:04.888Z,292.50
2018-08-25T06:23:04.879Z,298.13
2018-08-25T06:24:04.871Z,230.63
2018-08-25T06:25:04.863Z,247.50
2018-08-25T06:26:04.855Z,219.38
2018-08-25T06:27:04.846Z,213.75
2018-08-25T06:28:04.842Z,253.13
2018-08-25T06:29:04.830Z,410.63
2018-08-25T06:30:04.839Z,270.00
2018-08-25T06:31:04.812Z,320.63
2018-08-25T06:32:04.804Z,337.50
2018-08-25T06:33:04.797Z,523.13
2018-08-25T06:34:04.788Z,315.00
2018-08-25T06:35:04.779Z,343.13
2018-08-25T06:36:04.814Z,253.13
2018-08-25T06:37:04.764Z,225.00
2018-08-25T06:38:04.759Z,343.13
2018-08-25T06:39:04.747Z,292.50
2018-08-25T06:40:04.739Z,303.75
2018-08-25T06:41:04.732Z,365.63
2018-08-25T06:42:04.725Z,343.13
2018-08-25T06:43:04.716Z,343.13
2018-08-25T06:44:04.707Z,315.00
2018-08-25T06:45:04.700Z,438.75
2018-08-25T06:46:04.692Z,534.38
2018-08-25T06:47:04.684Z,506.25
2018-08-25T06:48:04.681Z,444.38
2018-08-25T06:49:04.669Z,354.38
2018-08-25T06:50:04.661Z,298.13
2018-08-25T06:51:04.653Z,360.00
2018-08-25T06:52:04.645Z,551.25
2018-08-25T06:53:04.638Z,405.00
2018-08-25T06:54:04.632Z,253.13
2018-08-25T06:55:04.622Z,275.63
2018-08-25T06:56:04.615Z,208.13
2018-08-25T06:57:04.607Z,343.13
2018-08-25T06:58:04.600Z,354.38
2018-08-25T06:59:04.591Z,331.88
2018-08-25T07:00:04.585Z,292.50
2018-08-25T07:01:04.577Z,326.25
2018-08-25T07:02:04.569Z,326.25
2018-08-25T07:03:04.561Z,376.88
2018-08-25T07:04:04.554Z,264.38
2018-08-25T07:05:04.547Z,247.50
2018-08-25T07:06:04.583Z,360.00
2018-08-25T07:07:04.534Z,292.50
2018-08-25T07:08:04.525Z,315.00
2018-08-25T07:09:04.518Z,348.75
2018-08-25T07:10:04.511Z,303.75
2018-08-25T07:11:04.501Z,365.63
2018-08-25T07:12:04.494Z,326.25
2018-08-25T07:13:04.487Z,444.38
2018-08-25T07:14:04.479Z,618.75
2018-08-25T07:15:04.471Z,731.25
2018-08-25T07:16:04.464Z,680.63
2018-08-25T07:17:04.459Z,376.88
2018-08-25T07:18:04.450Z,438.75
2018-08-25T07:19:04.556Z,697.50
2018-08-25T07:20:04.436Z,585.00
2018-08-25T07:21:04.428Z,517.50
2018-08-25T07:22:04.421Z,601.88
2018-08-25T07:23:04.417Z,855.00
2018-08-25T07:24:04.411Z,1113.75
2018-08-25T07:25:04.400Z,1181.25
2018-08-25T07:26:04.449Z,697.50
2018-08-25T07:27:04.387Z,663.75
2018-08-25T07:28:04.380Z,680.63
2018-08-25T07:29:04.375Z,613.13
2018-08-25T07:30:04.371Z,455.63
2018-08-25T07:31:04.362Z,472.50
2018-08-25T07:32:04.393Z,410.63
2018-08-25T07:33:04.349Z,517.50
2018-08-25T07:34:04.345Z,630.00
2018-08-25T07:35:04.335Z,613.13
2018-08-25T07:36:04.329Z,652.50
2018-08-25T07:37:04.323Z,697.50
2018-08-25T07:38:04.317Z,585.00
2018-08-25T07:39:04.310Z,343.13
2018-08-25T07:40:04.304Z,225.00
2018-08-25T07:41:04.297Z,157.50
2018-08-25T07:42:04.291Z,118.13
2018-08-25T07:43:04.288Z,95.63
2018-08-25T07:44:04.280Z,123.75
2018-08-25T07:45:04.319Z,180.00
2018-08-25T07:46:04.264Z,180.00
2018-08-25T07:47:04.257Z,253.13
2018-08-25T07:48:04.249Z,360.00
2018-08-25T07:49:04.243Z,371.25
2018-08-25T07:50:04.236Z,309.38
2018-08-25T07:51:04.236Z,388.13
2018-08-25T07:52:04.221Z,534.38
2018-08-25T07:53:04.214Z,455.63
2018-08-25T07:54:04.208Z,691.88
2018-08-25T07:55:04.200Z,2070.00
2018-08-25T07:56:04.194Z,945.00
2018-08-25T07:57:04.187Z,995.63
2018-08-25T07:58:04.181Z,1192.50
2018-08-25T07:59:04.201Z,990.00
2018-08-25T08:00:04.171Z,607.50
2018-08-25T08:01:04.164Z,433.13
2018-08-25T08:02:04.157Z,365.63
2018-08-25T08:03:04.150Z,348.75
2018-08-25T08:04:04.144Z,348.75
2018-08-25T08:05:04.138Z,388.13
2018-08-25T08:06:04.132Z,416.25
2018-08-25T08:07:04.125Z,416.25
2018-08-25T08:08:04.119Z,376.88
2018-08-25T08:09:04.113Z,309.38
2018-08-25T08:10:04.106Z,270.00
2018-08-25T08:11:04.100Z,275.63
2018-08-25T08:12:04.140Z,337.50
2018-08-25T08:13:04.088Z,466.88
2018-08-25T08:14:04.080Z,545.63
2018-08-25T08:15:04.075Z,540.00
2018-08-25T08:16:04.066Z,506.25
2018-08-25T08:17:04.060Z,511.88
2018-08-25T08:18:04.053Z,495.00
2018-08-25T08:19:04.046Z,421.88
2018-08-25T08:20:04.039Z,360.00
2018-08-25T08:21:04.034Z,337.50
2018-08-25T08:22:04.028Z,320.63
2018-08-25T08:23:04.019Z,331.88
2018-08-25T08:24:04.012Z,365.63
2018-08-25T08:25:04.006Z,360.00
2018-08-25T08:26:03.999Z,360.00
2018-08-25T08:27:03.994Z,354.38
2018-08-25T08:28:03.985Z,405.00
2018-08-25T08:29:03.978Z,478.13
2018-08-25T08:30:03.974Z,540.00
2018-08-25T08:31:03.964Z,652.50
2018-08-25T08:32:03.966Z,697.50
2018-08-25T08:33:03.979Z,579.38
2018-08-25T08:34:03.944Z,444.38
2018-08-25T08:35:03.937Z,309.38
2018-08-25T08:36:03.933Z,258.75
2018-08-25T08:37:03.924Z,281.25
2018-08-25T08:38:03.917Z,320.63
2018-08-25T08:39:03.911Z,343.13
2018-08-25T08:40:03.904Z,343.13
2018-08-25T08:41:03.897Z,315.00
2018-08-25T08:42:03.891Z,292.50
2018-08-25T08:43:03.888Z,315.00
2018-08-25T08:44:03.878Z,331.88
2018-08-25T08:45:03.872Z,382.50
2018-08-25T08:46:03.865Z,382.50
2018-08-25T08:47:03.857Z,371.25
2018-08-25T08:48:03.852Z,433.13
2018-08-25T08:49:03.844Z,551.25
2018-08-25T08:50:03.858Z,590.63
2018-08-25T08:51:03.831Z,579.38
2018-08-25T08:52:03.824Z,562.50
2018-08-25T08:53:03.817Z,607.50
2018-08-25T08:54:03.871Z,635.63
2018-08-25T08:55:03.803Z,725.63
2018-08-25T08:56:03.797Z,843.75
2018-08-25T08:57:03.792Z,939.38
2018-08-25T08:58:03.785Z,1108.13
2018-08-25T08:59:03.779Z,866.25
2018-08-25T09:00:03.773Z,826.88
2018-08-25T09:01:03.767Z,849.38
2018-08-25T09:02:03.761Z,838.13
2018-08-25T09:03:03.755Z,838.13
2018-08-25T09:04:03.749Z,781.88
2018-08-25T09:05:03.744Z,748.13
2018-08-25T09:06:03.739Z,748.13
2018-08-25T09:07:03.732Z,618.75
2018-08-25T09:08:03.726Z,590.63
2018-08-25T09:09:03.721Z,545.63
2018-08-25T09:10:03.716Z,568.13
2018-08-25T09:11:03.711Z,534.38
2018-08-25T09:12:03.705Z,506.25
2018-08-25T09:13:03.700Z,579.38
2018-08-25T09:14:03.693Z,742.50
2018-08-25T09:15:03.690Z,2143.13
2018-08-25T09:16:03.681Z,1338.75
2018-08-25T09:17:03.675Z,1473.75
2018-08-25T09:18:03.670Z,1771.88
2018-08-25T09:19:03.665Z,1783.13
2018-08-25T09:20:03.660Z,2868.75
2018-08-25T09:21:03.660Z,3571.88
2018-08-25T09:22:03.653Z,1732.50
2018-08-25T09:23:03.649Z,1800.00
2018-08-25T09:24:03.652Z,1665.00
2018-08-25T09:25:03.645Z,1710.00
2018-08-25T09:26:03.648Z,1378.13
2018-08-25T09:27:03.645Z,1271.25
2018-08-25T09:28:03.640Z,1226.25
2018-08-25T09:29:03.641Z,1108.13
2018-08-25T09:30:03.636Z,1085.63
2018-08-25T09:31:03.632Z,1108.13
2018-08-25T09:32:03.630Z,1153.13
2018-08-25T09:33:03.629Z,3223.13
2018-08-25T09:34:03.627Z,2818.13
2018-08-25T09:35:03.624Z,1940.63
2018-08-25T09:36:03.704Z,2221.88
2018-08-25T09:37:03.694Z,1153.13
2018-08-25T09:38:03.621Z,1023.75
2018-08-25T09:39:03.619Z,990.00
2018-08-25T09:40:03.618Z,1018.13
2018-08-25T09:41:03.617Z,973.13
2018-08-25T09:42:03.615Z,855.00
2018-08-25T09:43:03.613Z,798.75
2018-08-25T09:44:03.611Z,871.88
2018-08-25T09:45:03.609Z,922.50
2018-08-25T09:46:03.609Z,1035.00
2018-08-25T09:47:03.698Z,1440.00
2018-08-25T09:48:03.602Z,1923.75
2018-08-25T09:49:03.599Z,2227.50
2018-08-25T09:50:03.598Z,1563.75
2018-08-25T09:51:03.595Z,1203.75
2018-08-25T09:52:03.593Z,793.13
2018-08-25T09:53:03.592Z,691.88
2018-08-25T09:54:03.590Z,798.75
2018-08-25T09:55:03.586Z,973.13
2018-08-25T09:56:03.584Z,1158.75
2018-08-25T09:57:03.582Z,607.50
2018-08-25T09:58:03.580Z,545.63
2018-08-25T09:59:03.633Z,466.88
2018-08-25T10:00:03.574Z,405.00
2018-08-25T10:01:03.570Z,348.75
2018-08-25T10:02:03.568Z,331.88
2018-08-25T10:03:03.567Z,315.00
2018-08-25T10:04:03.560Z,315.00
2018-08-25T10:05:03.567Z,331.88
2018-08-25T10:06:03.553Z,360.00
2018-08-25T10:07:03.548Z,427.50
2018-08-25T10:08:03.550Z,466.88
2018-08-25T10:09:03.539Z,483.75
2018-08-25T10:10:03.535Z,545.63
2018-08-25T10:11:03.649Z,635.63
2018-08-25T10:12:03.525Z,781.88
2018-08-25T10:13:03.520Z,956.25
2018-08-25T10:14:03.515Z,1012.50
2018-08-25T10:15:03.512Z,967.50
2018-08-25T10:16:03.505Z,736.88
2018-08-25T10:17:03.501Z,523.13
2018-08-25T10:18:03.496Z,427.50
2018-08-25T10:19:03.491Z,416.25
2018-08-25T10:20:03.489Z,421.88
2018-08-25T10:21:03.481Z,399.38
2018-08-25T10:22:03.477Z,365.63
2018-08-25T10:23:03.520Z,371.25
2018-08-25T10:24:03.466Z,393.75
2018-08-25T10:25:03.461Z,461.25
2018-08-25T10:26:03.456Z,455.63
2018-08-25T10:27:03.450Z,393.75
2018-08-25T10:28:03.445Z,365.63
2018-08-25T10:29:03.477Z,388.13
2018-08-25T10:30:03.436Z,405.00
2018-08-25T10:31:03.429Z,438.75
2018-08-25T10:32:03.424Z,438.75
2018-08-25T10:33:03.419Z,421.88
2018-08-25T10:34:03.413Z,399.38
2018-08-25T10:35:03.407Z,388.13
2018-08-25T10:36:03.402Z,399.38
2018-08-25T10:37:03.396Z,427.50
2018-08-25T10:38:03.391Z,495.00
2018-08-25T10:39:03.384Z,562.50
2018-08-25T10:40:03.380Z,618.75
2018-08-25T10:41:03.374Z,697.50
2018-08-25T10:42:03.401Z,781.88
2018-08-25T10:43:03.363Z,832.50
2018-08-25T10:44:03.358Z,832.50
2018-08-25T10:45:03.353Z,810.00
2018-08-25T10:46:03.348Z,776.25
2018-08-25T10:47:03.342Z,765.00
2018-08-25T10:48:03.407Z,798.75
2018-08-25T10:49:03.334Z,933.75
2018-08-25T10:50:03.329Z,1125.00
2018-08-25T10:51:03.322Z,1198.13
2018-08-25T10:52:03.318Z,1395.00
2018-08-25T10:53:03.313Z,1153.13
2018-08-25T10:54:03.411Z,1119.38
2018-08-25T10:55:03.305Z,1113.75
2018-08-25T10:56:03.301Z,1074.38
2018-08-25T10:57:03.297Z,984.38
2018-08-25T10:58:03.297Z,883.13
2018-08-25T10:59:03.289Z,849.38
2018-08-25T11:00:03.344Z,2705.63
2018-08-25T11:01:03.391Z,3363.75
2018-08-25T11:02:03.280Z,3183.75
2018-08-25T11:03:03.276Z,3166.88
2018-08-25T11:04:03.277Z,3166.88
2018-08-25T11:05:03.288Z,3054.38
2018-08-25T11:06:03.273Z,3071.25
2018-08-25T11:07:03.274Z,3048.75
2018-08-25T11:08:03.275Z,3020.63
2018-08-25T11:09:03.276Z,3088.13
2018-08-25T11:10:03.283Z,3026.25
2018-08-25T11:11:03.280Z,2964.38
2018-08-25T11:12:03.283Z,2925.00
2018-08-25T11:13:03.287Z,3048.75
2018-08-25T11:14:03.291Z,3172.50
2018-08-25T11:15:03.295Z,3256.88
2018-08-25T11:16:03.300Z,1288.13
2018-08-25T11:17:03.311Z,3200.63
2018-08-25T11:18:03.310Z,2199.38
2018-08-25T11:19:03.314Z,1845.00
2018-08-25T11:20:03.324Z,2643.75
2018-08-25T11:21:03.323Z,1181.25
2018-08-25T11:22:03.330Z,1130.63
2018-08-25T11:23:03.331Z,1186.88
2018-08-25T11:24:03.335Z,1327.50
2018-08-25T11:25:03.338Z,1912.50
2018-08-25T11:26:03.341Z,3003.75
2018-08-25T11:27:03.346Z,1524.38
2018-08-25T11:28:03.346Z,1743.75
2018-08-25T11:29:03.348Z,1603.13
2018-08-25T11:30:03.351Z,2311.88
2018-08-25T11:31:03.352Z,1372.50
2018-08-25T11:32:03.355Z,877.50
2018-08-25T11:33:03.357Z,691.88
2018-08-25T11:34:03.359Z,551.25
2018-08-25T11:35:03.360Z,438.75
2018-08-25T11:36:03.360Z,348.75
2018-08-25T11:37:03.362Z,315.00
2018-08-25T11:38:03.490Z,292.50
2018-08-25T11:39:03.357Z,298.13
2018-08-25T11:40:03.357Z,354.38
2018-08-25T11:41:03.355Z,433.13
2018-08-25T11:42:03.353Z,528.75
2018-08-25T11:43:03.350Z,658.13
2018-08-25T11:44:03.421Z,905.63
2018-08-25T11:45:03.345Z,1125.00
2018-08-25T11:46:03.343Z,1417.50
2018-08-25T11:47:03.339Z,1203.75
2018-08-25T11:48:03.337Z,1147.50
2018-08-25T11:49:03.334Z,2463.75
2018-08-25T11:50:03.332Z,1029.38
2018-08-25T11:51:03.328Z,990.00
2018-08-25T11:52:03.327Z,995.63
2018-08-25T11:53:03.324Z,1006.88
2018-08-25T11:54:03.340Z,1063.13
2018-08-25T11:55:03.318Z,1440.00
2018-08-25T11:56:03.316Z,1794.38
2018-08-25T11:57:03.315Z,1704.38
2018-08-25T11:58:03.310Z,1063.13
2018-08-25T11:59:03.307Z,984.38
2018-08-25T12:00:03.305Z,973.13
2018-08-25T12:01:03.304Z,950.63
2018-08-25T12:02:03.317Z,866.25
2018-08-25T12:03:03.834Z,759.38
2018-08-25T12:04:03.297Z,686.25
2018-08-25T12:05:03.294Z,691.88
2018-08-25T12:06:03.291Z,736.88
2018-08-25T12:07:03.287Z,770.63
2018-08-25T12:08:03.283Z,776.25
2018-08-25T12:09:03.281Z,776.25
2018-08-25T12:10:03.281Z,793.13
2018-08-25T12:11:03.274Z,866.25
2018-08-25T12:12:03.272Z,984.38
2018-08-25T12:13:03.270Z,1085.63
2018-08-25T12:14:03.266Z,1192.50
2018-08-25T12:15:03.262Z,1586.25
2018-08-25T12:16:03.265Z,2756.25
2018-08-25T12:17:03.257Z,1878.75
2018-08-25T12:18:03.256Z,2210.63
2018-08-25T12:19:03.251Z,3200.63
2018-08-25T12:20:03.251Z,3245.63
2018-08-25T12:21:03.250Z,3301.88
2018-08-25T12:22:03.250Z,2109.38
2018-08-25T12:23:03.250Z,1575.00
2018-08-25T12:24:03.260Z,2767.50
2018-08-25T12:25:03.256Z,2851.88
2018-08-25T12:26:03.255Z,2593.13
2018-08-25T12:27:03.256Z,2323.13
2018-08-25T12:28:03.259Z,2632.50
2018-08-25T12:29:03.260Z,2317.50
2018-08-25T12:30:03.282Z,2109.38
2018-08-25T12:31:03.263Z,1276.88
2018-08-25T12:32:03.269Z,967.50
2018-08-25T12:33:03.268Z,871.88
2018-08-25T12:34:03.316Z,680.63
2018-08-25T12:35:03.275Z,511.88
2018-08-25T12:36:03.272Z,393.75
2018-08-25T12:37:03.272Z,315.00
2018-08-25T12:38:03.272Z,258.75
2018-08-25T12:39:03.327Z,241.88
2018-08-25T12:40:03.271Z,258.75
2018-08-25T12:41:03.270Z,264.38
2018-08-25T12:42:03.269Z,303.75
2018-08-25T12:43:03.271Z,427.50
2018-08-25T12:44:03.264Z,607.50
2018-08-25T12:45:03.328Z,663.75